Flight Track Log - Related Links

Times and Time Zones

All times are in EDT time to prevent confusion due to time zone crossing. See the N27XP flight status page for this flight to view local times or setup timezone preferences in your user account.

Time Position Orientation Groundspeed Altitude Reporting Facility
EDT Latitude Longitude Course Direction KTS MPH feet Rate Location/Type
Wed 02:56:50 PM 35.2819 -79.4619 261° West 238 274 5,300  Level Washington Center
Wed 02:57:49 PM 35.2547 -79.5217 241° Southwest 238 274 8,100 2,350 Climbing Washington Center
Wed 02:58:50 PM 35.2253 -79.5967 244° Southwest 226 260 10,000 1,140 Climbing Washington Center
Wed 02:59:50 PM 35.2058 -79.6794 254° West 264 304 10,400 1,337 Climbing Washington Center
Wed 03:00:00 PM 35.1814 -79.7932 256° West  Level FlightAware Approximate
Wed 03:01:00 PM 35.1631 -79.8951 261° West  Level FlightAware Approximate
Wed 03:01:36 PM 35.1800 -79.8639 260° West 303 349 13,700  Level Atlanta Center
Wed 03:02:36 PM 35.1653 -79.9839 261° West 319 367 15,600 1,800 Climbing Atlanta Center
Wed 03:03:36 PM 35.1500 -80.0914 260° West 324 373 17,300 1,600 Climbing Atlanta Center
Wed 03:04:36 PM 35.1367 -80.2011 262° West 324 373 18,800 1,250 Climbing Atlanta Center
Wed 03:05:36 PM 35.1214 -80.3161 261° West 336 387 19,800 550 Climbing Atlanta Center
Wed 03:06:36 PM 35.1061 -80.4361 261° West 349 402 19,900 100 Climbing Atlanta Center
Wed 03:07:36 PM 35.0892 -80.5639 261° West 364 419 20,000 50 Climbing Atlanta Center
Wed 03:08:36 PM 35.0733 -80.6761 260° West 372 428 20,000  Level Atlanta Center
Wed 03:09:36 PM 35.0561 -80.8061 261° West 383 441 20,000  Level Atlanta Center
Wed 03:10:36 PM 35.0386 -80.9389 261° West 388 447 20,000  Level Atlanta Center
Wed 03:11:36 PM 35.0228 -81.0636 261° West 393 452 20,000  Level Atlanta Center
Wed 03:12:36 PM 35.0031 -81.1911 259° West 387 445 20,000  Level Atlanta Center
Wed 03:13:36 PM 34.9850 -81.3211 260° West 392 451 20,000  Level Atlanta Center
Wed 03:14:36 PM 34.9692 -81.4508 262° West 392 451 20,000  Level Atlanta Center
Wed 03:15:36 PM 34.9508 -81.5731 260° West 387 445 20,000  Level Atlanta Center
Wed 03:16:36 PM 34.9367 -81.7053 263° West 387 445 20,000  Level Atlanta Center
Wed 03:17:36 PM 34.9181 -81.8325 260° West 392 451 20,000  Level Atlanta Center
Wed 03:18:36 PM 34.8972 -81.9519 258° West 386 444 20,000 -50 Level Atlanta Center
Wed 03:19:36 PM 34.8806 -82.0792 261° West 386 444 19,900  Descending Atlanta Center
Wed 03:20:36 PM 34.8594 -82.2036 258° West 386 444 20,000  Climbing Atlanta Center
Wed 03:21:36 PM 34.8425 -82.3331 261° West 386 444 19,900  Descending Atlanta Center
Wed 03:22:36 PM 34.8233 -82.4600 260° West 386 444 20,000 50 Climbing Atlanta Center
Wed 03:23:36 PM 34.8042 -82.5867 260° West 386 444 20,000  Level Atlanta Center
Wed 03:24:36 PM 34.7828 -82.7261 259° West 391 450 20,000  Level Atlanta Center
Wed 03:25:36 PM 34.7653 -82.8531 261° West 391 450 20,000  Level Atlanta Center
Wed 03:26:36 PM 34.7456 -82.9797 259° West 391 450 20,000 -150 Level Atlanta Center
Wed 03:27:36 PM 34.7258 -83.1086 259° West 391 450 19,700 -1,100 Descending Atlanta Center
Wed 03:28:36 PM 34.7058 -83.2378 259° West 391 450 17,800 -2,100 Descending Atlanta Center
Wed 03:29:36 PM 34.6583 -83.3519 243° Southwest 386 444 15,500 -2,050 Descending Atlanta Center
Wed 03:30:36 PM 34.6006 -83.4583 237° Southwest 377 434 13,700 -1,500 Descending Atlanta Center
Wed 03:31:36 PM 34.5531 -83.5647 242° Southwest 377 434 12,500 -1,150 Descending Atlanta Center
Wed 03:32:36 PM 34.5033 -83.6708 240° Southwest 372 428 11,400 -750 Descending Atlanta Center
Wed 03:33:36 PM 34.4556 -83.7742 241° Southwest 367 422 11,000 -1,100 Descending Atlanta Center
Wed 03:34:36 PM 34.4097 -83.8750 241° Southwest 357 411 9,200 -1,300 Descending Atlanta Center
Wed 03:35:36 PM 34.3681 -83.9608 240° Southwest 331 381 8,400 -650 Descending Atlanta Center
Wed 03:36:36 PM 34.3222 -84.0336 233° Southwest 299 344 7,900 -250 Descending Atlanta Center
Wed 03:37:36 PM 34.2681 -84.0967 224° Southwest 280 322 7,900 -900 Level Atlanta Center
Wed 03:38:36 PM 34.1950 -84.1317 202° Southwest 273 314 6,100 -1,600 Descending Atlanta Center
Wed 03:39:36 PM 34.1197 -84.1517 192° South 273 314 4,700 -1,050 Descending Atlanta Center
Wed 03:40:36 PM 34.0531 -84.1667 191° South 264 304 4,000 -350 Descending Atlanta Center
Wed 03:41:36 PM 33.9925 -84.1767 188° South 246 283 4,000 -150 Level Atlanta Center
Wed 03:42:36 PM 33.9361 -84.1889 190° South 223 257 3,700 -400 Descending Atlanta Center
Wed 03:43:36 PM 33.8861 -84.2014 192° South 217 250 3,200 -516 Descending Atlanta Center
Wed 03:44:09 PM 33.8500 -84.2167 199° South 203 234 2,900 -645 Descending Atlanta TRACON
Wed 03:45:09 PM 33.8333 -84.2667 248° West 171 197 2,200 -750 Descending Atlanta TRACON
Wed 03:46:09 PM 33.8500 -84.3000 301° West 145 167 1,400 -800 Descending Atlanta TRACON
Wed 03:48:00 PM 33.8667 -84.3000 209° Southwest  Level FlightAware Approximate

Login

Don't have an account? Register now (free) for customized features, flight alerts, and more!